VEGT/GAU METAR and TAF weather

Enter ICAO airport designator
Station Type Date Time Source
VEGT METAR 2019/10/20 18:30 UTC NOAA

VEGT 201830Z 00000KT 3000 BR SCT018 BKN100 26/25 Q1011 NOSIG


Station Type Date Time Source
VEGT Decoded METAR 2019/10/20 18:30 UTC NOAA

Gauhati, India (VEGT) 26-06N 091-35E 54M
Oct 20, 2019 - 02:30 PM EDT / 2019.10.20 1830 UTC
Wind: Calm:0
Visibility: 1 mile(s):0
Sky conditions: mostly cloudy
Weather: mist
Temperature: 78 F (26 C)
Dew Point: 77 F (25 C)
Relative Humidity: 94%
Pressure (altimeter): 29.85 in. Hg (1011 hPa)
ob: VEGT 201830Z 00000KT 3000 BR SCT018 BKN100 26/25 Q1011 NOSIG
cycle: 18

Station Type Date Time Source
VEGT TAF 2016/03/24 00:45 UTC NOAA

TAF VEGT 242300Z 2500/2606 00000KT 2000 BR FEW020
BECMG 2503/2506 05008KT 4000 HZ
BECMG 2506/2509 5000 HZ
BECMG 2512/2514 00000KT 4000 HZ FEW020 SCT100
BECMG 2515/2518 2500 HZ
BECMG 2603/2606 05008KT 4000 HZ FEW020=

Example: see airport list